sensor_id;sensor_type;location;lat;lon;timestamp;temperature;humidity
69387;SHT31;56575;48.942;8.404;2023-06-22T00:01:15;23.08;77.19
69387;SHT31;56575;48.942;8.404;2023-06-22T00:03:41;23.08;77.39
69387;SHT31;56575;48.942;8.404;2023-06-22T00:06:06;23.02;77.72
69387;SHT31;56575;48.942;8.404;2023-06-22T00:08:31;23.07;77.66
69387;SHT31;56575;48.942;8.404;2023-06-22T00:10:57;23.07;77.68
69387;SHT31;56575;48.942;8.404;2023-06-22T00:13:22;23.07;78.03
69387;SHT31;56575;48.942;8.404;2023-06-22T00:15:48;23.09;77.43
69387;SHT31;56575;48.942;8.404;2023-06-22T00:18:13;23.11;76.84
69387;SHT31;56575;48.942;8.404;2023-06-22T00:20:39;23.09;75.97
69387;SHT31;56575;48.942;8.404;2023-06-22T00:23:06;23.04;75.99
69387;SHT31;56575;48.942;8.404;2023-06-22T00:25:38;23.11;75.76
69387;SHT31;56575;48.942;8.404;2023-06-22T00:28:05;23.11;75.74
69387;SHT31;56575;48.942;8.404;2023-06-22T00:30:32;23.15;75.43
69387;SHT31;56575;48.942;8.404;2023-06-22T00:32:58;23.12;78.18
69387;SHT31;56575;48.942;8.404;2023-06-22T00:35:24;22.26;97.91
69387;SHT31;56575;48.942;8.404;2023-06-22T00:37:56;21.51;92.38
69387;SHT31;56575;48.942;8.404;2023-06-22T00:40:30;21.26;92.77
69387;SHT31;56575;48.942;8.404;2023-06-22T00:42:57;21.08;92.99
69387;SHT31;56575;48.942;8.404;2023-06-22T00:45:23;20.99;93.19
69387;SHT31;56575;48.942;8.404;2023-06-22T00:47:52;20.96;93.38
69387;SHT31;56575;48.942;8.404;2023-06-22T00:50:20;20.88;93.51
69387;SHT31;56575;48.942;8.404;2023-06-22T00:52:57;20.77;93.59
69387;SHT31;56575;48.942;8.404;2023-06-22T00:55:24;20.78;93.70
69387;SHT31;56575;48.942;8.404;2023-06-22T00:57:51;20.67;93.80
69387;SHT31;56575;48.942;8.404;2023-06-22T01:00:22;20.67;93.89
69387;SHT31;56575;48.942;8.404;2023-06-22T01:02:50;20.60;93.98
69387;SHT31;56575;48.942;8.404;2023-06-22T01:05:17;20.57;94.05
69387;SHT31;56575;48.942;8.404;2023-06-22T01:08:26;20.51;94.09
69387;SHT31;56575;48.942;8.404;2023-06-22T01:11:35;20.50;94.18
69387;SHT31;56575;48.942;8.404;2023-06-22T01:16:27;20.41;94.30
69387;SHT31;56575;48.942;8.404;2023-06-22T01:18:55;20.39;94.38
69387;SHT31;56575;48.942;8.404;2023-06-22T01:21:23;20.37;94.38
69387;SHT31;56575;48.942;8.404;2023-06-22T01:29:04;20.23;94.57
69387;SHT31;56575;48.942;8.404;2023-06-22T01:31:31;20.25;94.61
69387;SHT31;56575;48.942;8.404;2023-06-22T01:33:59;20.25;94.60
69387;SHT31;56575;48.942;8.404;2023-06-22T01:36:26;20.29;94.67
69387;SHT31;56575;48.942;8.404;2023-06-22T01:38:53;20.28;94.68
69387;SHT31;56575;48.942;8.404;2023-06-22T01:41:19;20.20;94.75
69387;SHT31;56575;48.942;8.404;2023-06-22T01:43:46;20.23;94.77
69387;SHT31;56575;48.942;8.404;2023-06-22T01:46:14;20.16;94.83
69387;SHT31;56575;48.942;8.404;2023-06-22T01:48:39;20.01;94.88
69387;SHT31;56575;48.942;8.404;2023-06-22T01:51:05;19.95;94.91
69387;SHT31;56575;48.942;8.404;2023-06-22T01:53:31;19.99;94.94
69387;SHT31;56575;48.942;8.404;2023-06-22T01:55:56;20.04;94.96
69387;SHT31;56575;48.942;8.404;2023-06-22T01:58:27;19.99;94.98
69387;SHT31;56575;48.942;8.404;2023-06-22T02:01:12;19.99;94.99
69387;SHT31;56575;48.942;8.404;2023-06-22T02:03:50;20.08;95.02
69387;SHT31;56575;48.942;8.404;2023-06-22T02:06:21;20.08;95.04
69387;SHT31;56575;48.942;8.404;2023-06-22T02:09:00;20.06;95.07
69387;SHT31;56575;48.942;8.404;2023-06-22T02:11:26;20.04;95.11
69387;SHT31;56575;48.942;8.404;2023-06-22T02:13:55;20.05;95.15
69387;SHT31;56575;48.942;8.404;2023-06-22T02:16:22;20.04;95.16
69387;SHT31;56575;48.942;8.404;2023-06-22T02:18:48;20.01;95.19
69387;SHT31;56575;48.942;8.404;2023-06-22T02:21:20;20.04;95.20
69387;SHT31;56575;48.942;8.404;2023-06-22T02:23:46;20.05;95.24
69387;SHT31;56575;48.942;8.404;2023-06-22T02:26:12;20.01;95.27
69387;SHT31;56575;48.942;8.404;2023-06-22T02:28:38;20.01;95.28
69387;SHT31;56575;48.942;8.404;2023-06-22T02:31:03;19.92;95.31
69387;SHT31;56575;48.942;8.404;2023-06-22T02:33:29;19.95;95.36
69387;SHT31;56575;48.942;8.404;2023-06-22T02:35:54;19.93;95.35
69387;SHT31;56575;48.942;8.404;2023-06-22T02:38:19;19.85;95.36
69387;SHT31;56575;48.942;8.404;2023-06-22T02:40:46;19.78;95.42
69387;SHT31;56575;48.942;8.404;2023-06-22T02:43:12;19.78;95.42
69387;SHT31;56575;48.942;8.404;2023-06-22T02:45:38;19.73;95.46
69387;SHT31;56575;48.942;8.404;2023-06-22T02:48:04;19.77;95.49
69387;SHT31;56575;48.942;8.404;2023-06-22T02:50:29;19.73;95.48
69387;SHT31;56575;48.942;8.404;2023-06-22T02:52:55;19.75;95.50
69387;SHT31;56575;48.942;8.404;2023-06-22T02:55:20;19.73;95.56
69387;SHT31;56575;48.942;8.404;2023-06-22T02:57:46;19.70;95.49
69387;SHT31;56575;48.942;8.404;2023-06-22T03:00:13;19.64;95.56
69387;SHT31;56575;48.942;8.404;2023-06-22T03:02:46;19.61;95.57
69387;SHT31;56575;48.942;8.404;2023-06-22T03:05:13;19.60;95.59
69387;SHT31;56575;48.942;8.404;2023-06-22T03:07:40;19.63;95.61
69387;SHT31;56575;48.942;8.404;2023-06-22T03:10:10;19.51;95.65
69387;SHT31;56575;48.942;8.404;2023-06-22T03:12:39;19.51;95.65
69387;SHT31;56575;48.942;8.404;2023-06-22T03:15:06;19.45;95.65
69387;SHT31;56575;48.942;8.404;2023-06-22T03:17:33;19.51;95.69
69387;SHT31;56575;48.942;8.404;2023-06-22T03:19:58;19.39;95.70
69387;SHT31;56575;48.942;8.404;2023-06-22T03:22:24;19.41;95.74
69387;SHT31;56575;48.942;8.404;2023-06-22T03:24:49;19.40;95.76
69387;SHT31;56575;48.942;8.404;2023-06-22T03:27:14;19.34;95.75
69387;SHT31;56575;48.942;8.404;2023-06-22T03:29:40;19.45;95.77
69387;SHT31;56575;48.942;8.404;2023-06-22T03:32:05;19.43;95.80
69387;SHT31;56575;48.942;8.404;2023-06-22T03:34:32;19.56;95.77
69387;SHT31;56575;48.942;8.404;2023-06-22T03:36:59;19.49;95.82
69387;SHT31;56575;48.942;8.404;2023-06-22T03:39:25;19.45;95.82
69387;SHT31;56575;48.942;8.404;2023-06-22T03:41:50;19.31;95.87
69387;SHT31;56575;48.942;8.404;2023-06-22T03:44:15;19.29;95.87
69387;SHT31;56575;48.942;8.404;2023-06-22T03:46:41;19.30;95.89
69387;SHT31;56575;48.942;8.404;2023-06-22T03:49:06;19.23;95.91
69387;SHT31;56575;48.942;8.404;2023-06-22T03:51:32;19.30;95.94
69387;SHT31;56575;48.942;8.404;2023-06-22T03:53:58;19.19;95.95
69387;SHT31;56575;48.942;8.404;2023-06-22T03:56:23;19.30;96.00
69387;SHT31;56575;48.942;8.404;2023-06-22T03:58:48;19.39;95.96
69387;SHT31;56575;48.942;8.404;2023-06-22T04:01:14;19.39;95.98
69387;SHT31;56575;48.942;8.404;2023-06-22T04:03:42;19.40;95.98
69387;SHT31;56575;48.942;8.404;2023-06-22T04:06:07;19.37;96.00
69387;SHT31;56575;48.942;8.404;2023-06-22T04:08:33;19.39;96.04
69387;SHT31;56575;48.942;8.404;2023-06-22T04:10:58;19.43;96.06
69387;SHT31;56575;48.942;8.404;2023-06-22T04:13:23;19.33;96.03
69387;SHT31;56575;48.942;8.404;2023-06-22T04:15:48;19.24;96.04
69387;SHT31;56575;48.942;8.404;2023-06-22T04:18:14;19.33;96.12
69387;SHT31;56575;48.942;8.404;2023-06-22T04:20:39;19.43;96.09
69387;SHT31;56575;48.942;8.404;2023-06-22T04:23:05;19.53;96.06
69387;SHT31;56575;48.942;8.404;2023-06-22T04:25:30;19.46;96.11
69387;SHT31;56575;48.942;8.404;2023-06-22T04:27:56;19.47;96.12
69387;SHT31;56575;48.942;8.404;2023-06-22T04:30:21;19.47;96.21
69387;SHT31;56575;48.942;8.404;2023-06-22T04:32:47;19.39;96.38
69387;SHT31;56575;48.942;8.404;2023-06-22T04:35:21;19.50;96.61
69387;SHT31;56575;48.942;8.404;2023-06-22T04:37:50;19.65;96.68
69387;SHT31;56575;48.942;8.404;2023-06-22T04:40:21;19.77;96.71
69387;SHT31;56575;48.942;8.404;2023-06-22T04:42:46;19.70;96.83
69387;SHT31;56575;48.942;8.404;2023-06-22T04:45:17;19.81;96.80
69387;SHT31;56575;48.942;8.404;2023-06-22T04:47:42;19.89;96.79
69387;SHT31;56575;48.942;8.404;2023-06-22T04:50:13;19.82;96.85
69387;SHT31;56575;48.942;8.404;2023-06-22T04:52:38;19.92;96.89
69387;SHT31;56575;48.942;8.404;2023-06-22T04:55:04;19.96;97.02
69387;SHT31;56575;48.942;8.404;2023-06-22T04:57:30;20.02;97.17
69387;SHT31;56575;48.942;8.404;2023-06-22T04:59:59;20.08;97.36
69387;SHT31;56575;48.942;8.404;2023-06-22T05:02:36;20.12;97.67
69387;SHT31;56575;48.942;8.404;2023-06-22T05:05:02;20.23;97.96
69387;SHT31;56575;48.942;8.404;2023-06-22T05:07:34;20.16;99.00
69387;SHT31;56575;48.942;8.404;2023-06-22T05:10:01;20.15;99.60
69387;SHT31;56575;48.942;8.404;2023-06-22T05:12:28;20.20;99.74
69387;SHT31;56575;48.942;8.404;2023-06-22T05:14:54;20.23;99.06
69387;SHT31;56575;48.942;8.404;2023-06-22T05:17:19;20.08;99.42
69387;SHT31;56575;48.942;8.404;2023-06-22T05:19:45;20.25;99.26
69387;SHT31;56575;48.942;8.404;2023-06-22T05:22:15;20.32;99.57
69387;SHT31;56575;48.942;8.404;2023-06-22T05:24:40;20.37;99.72
69387;SHT31;56575;48.942;8.404;2023-06-22T05:27:06;20.40;99.99
69387;SHT31;56575;48.942;8.404;2023-06-22T05:29:31;20.48;99.99
69387;SHT31;56575;48.942;8.404;2023-06-22T05:31:57;20.53;99.99
69387;SHT31;56575;48.942;8.404;2023-06-22T05:34:22;20.61;99.99
69387;SHT31;56575;48.942;8.404;2023-06-22T05:36:47;20.67;99.50
69387;SHT31;56575;48.942;8.404;2023-06-22T05:39:14;20.65;99.18
69387;SHT31;56575;48.942;8.404;2023-06-22T05:41:40;20.63;95.78
69387;SHT31;56575;48.942;8.404;2023-06-22T05:44:06;20.81;98.56
69387;SHT31;56575;48.942;8.404;2023-06-22T05:46:31;20.84;98.16
69387;SHT31;56575;48.942;8.404;2023-06-22T05:48:57;20.94;97.90
69387;SHT31;56575;48.942;8.404;2023-06-22T05:51:22;20.99;97.69
69387;SHT31;56575;48.942;8.404;2023-06-22T05:53:47;21.01;96.72
69387;SHT31;56575;48.942;8.404;2023-06-22T05:56:15;21.06;95.65
69387;SHT31;56575;48.942;8.404;2023-06-22T05:58:41;21.12;95.74
69387;SHT31;56575;48.942;8.404;2023-06-22T06:01:06;21.20;95.23
69387;SHT31;56575;48.942;8.404;2023-06-22T06:03:31;21.25;95.94
69387;SHT31;56575;48.942;8.404;2023-06-22T06:05:57;21.26;96.63
69387;SHT31;56575;48.942;8.404;2023-06-22T06:08:22;21.30;94.81
69387;SHT31;56575;48.942;8.404;2023-06-22T06:10:48;21.36;95.43
69387;SHT31;56575;48.942;8.404;2023-06-22T06:13:13;21.43;94.75
69387;SHT31;56575;48.942;8.404;2023-06-22T06:15:39;21.49;96.30
69387;SHT31;56575;48.942;8.404;2023-06-22T06:18:04;21.57;96.36
69387;SHT31;56575;48.942;8.404;2023-06-22T06:20:31;21.60;94.90
69387;SHT31;56575;48.942;8.404;2023-06-22T06:22:56;21.65;94.76
69387;SHT31;56575;48.942;8.404;2023-06-22T06:25:22;21.71;93.81
69387;SHT31;56575;48.942;8.404;2023-06-22T06:27:50;21.81;94.03
69387;SHT31;56575;48.942;8.404;2023-06-22T06:30:17;21.88;94.11
69387;SHT31;56575;48.942;8.404;2023-06-22T06:32:43;21.97;95.01
69387;SHT31;56575;48.942;8.404;2023-06-22T06:35:11;22.04;91.31
69387;SHT31;56575;48.942;8.404;2023-06-22T06:37:41;22.13;91.29
69387;SHT31;56575;48.942;8.404;2023-06-22T06:40:08;22.26;93.42
69387;SHT31;56575;48.942;8.404;2023-06-22T06:42:36;22.32;90.82
69387;SHT31;56575;48.942;8.404;2023-06-22T06:45:04;22.45;89.75
69387;SHT31;56575;48.942;8.404;2023-06-22T06:47:30;22.56;91.24
69387;SHT31;56575;48.942;8.404;2023-06-22T06:49:55;22.71;90.78
69387;SHT31;56575;48.942;8.404;2023-06-22T06:52:20;22.80;87.81
69387;SHT31;56575;48.942;8.404;2023-06-22T06:54:46;22.91;86.54
69387;SHT31;56575;48.942;8.404;2023-06-22T06:57:11;23.14;84.29
69387;SHT31;56575;48.942;8.404;2023-06-22T06:59:38;23.26;88.28
69387;SHT31;56575;48.942;8.404;2023-06-22T07:02:04;23.33;83.69
69387;SHT31;56575;48.942;8.404;2023-06-22T07:04:30;23.45;81.79
69387;SHT31;56575;48.942;8.404;2023-06-22T07:06:55;23.50;84.21
69387;SHT31;56575;48.942;8.404;2023-06-22T07:09:21;23.59;82.03
69387;SHT31;56575;48.942;8.404;2023-06-22T07:11:46;23.73;79.81
69387;SHT31;56575;48.942;8.404;2023-06-22T07:14:11;23.83;81.24
69387;SHT31;56575;48.942;8.404;2023-06-22T07:16:37;23.94;78.05
69387;SHT31;56575;48.942;8.404;2023-06-22T07:19:02;24.08;77.44
69387;SHT31;56575;48.942;8.404;2023-06-22T07:21:27;24.14;80.35
69387;SHT31;56575;48.942;8.404;2023-06-22T07:23:53;24.30;77.26
69387;SHT31;56575;48.942;8.404;2023-06-22T07:26:19;24.35;77.38
69387;SHT31;56575;48.942;8.404;2023-06-22T07:28:44;24.46;77.77
69387;SHT31;56575;48.942;8.404;2023-06-22T07:31:10;24.57;76.74
69387;SHT31;56575;48.942;8.404;2023-06-22T07:33:35;24.69;76.28
69387;SHT31;56575;48.942;8.404;2023-06-22T07:36:01;24.77;77.54
69387;SHT31;56575;48.942;8.404;2023-06-22T07:38:27;24.94;75.57
69387;SHT31;56575;48.942;8.404;2023-06-22T07:40:53;25.06;76.24
69387;SHT31;56575;48.942;8.404;2023-06-22T07:43:19;25.15;75.67
69387;SHT31;56575;48.942;8.404;2023-06-22T07:45:50;25.21;75.23
69387;SHT31;56575;48.942;8.404;2023-06-22T07:48:22;25.31;74.26
69387;SHT31;56575;48.942;8.404;2023-06-22T07:50:48;25.41;73.10
69387;SHT31;56575;48.942;8.404;2023-06-22T07:53:13;25.50;73.93
69387;SHT31;56575;48.942;8.404;2023-06-22T07:55:39;25.60;73.64
69387;SHT31;56575;48.942;8.404;2023-06-22T07:58:04;25.67;74.30
69387;SHT31;56575;48.942;8.404;2023-06-22T08:00:30;25.69;74.31
69387;SHT31;56575;48.942;8.404;2023-06-22T08:02:55;25.79;73.11
69387;SHT31;56575;48.942;8.404;2023-06-22T08:05:21;25.93;72.64
69387;SHT31;56575;48.942;8.404;2023-06-22T08:07:47;26.01;71.86
69387;SHT31;56575;48.942;8.404;2023-06-22T08:10:13;26.14;72.89
69387;SHT31;56575;48.942;8.404;2023-06-22T08:12:42;26.25;71.92
69387;SHT31;56575;48.942;8.404;2023-06-22T08:15:08;26.38;71.38
69387;SHT31;56575;48.942;8.404;2023-06-22T08:17:36;26.48;71.46
69387;SHT31;56575;48.942;8.404;2023-06-22T08:20:02;26.60;69.95
69387;SHT31;56575;48.942;8.404;2023-06-22T08:22:34;26.83;69.55
69387;SHT31;56575;48.942;8.404;2023-06-22T08:25:00;26.79;69.56
69387;SHT31;56575;48.942;8.404;2023-06-22T08:27:25;26.73;68.72
69387;SHT31;56575;48.942;8.404;2023-06-22T08:29:53;26.62;68.43
69387;SHT31;56575;48.942;8.404;2023-06-22T08:32:23;26.72;69.20
69387;SHT31;56575;48.942;8.404;2023-06-22T08:34:49;26.84;68.98
69387;SHT31;56575;48.942;8.404;2023-06-22T08:37:14;27.00;69.05
69387;SHT31;56575;48.942;8.404;2023-06-22T08:39:40;27.03;68.61
69387;SHT31;56575;48.942;8.404;2023-06-22T08:42:06;27.23;67.87
69387;SHT31;56575;48.942;8.404;2023-06-22T08:44:31;27.45;67.30
69387;SHT31;56575;48.942;8.404;2023-06-22T08:46:57;27.90;67.10
69387;SHT31;56575;48.942;8.404;2023-06-22T08:49:22;27.97;66.33
69387;SHT31;56575;48.942;8.404;2023-06-22T08:51:48;28.41;64.67
69387;SHT31;56575;48.942;8.404;2023-06-22T08:54:14;28.62;63.94
69387;SHT31;56575;48.942;8.404;2023-06-22T08:56:40;28.75;63.23
69387;SHT31;56575;48.942;8.404;2023-06-22T08:59:05;28.68;61.81
69387;SHT31;56575;48.942;8.404;2023-06-22T09:01:33;28.63;63.66
69387;SHT31;56575;48.942;8.404;2023-06-22T09:03:58;28.68;61.27
69387;SHT31;56575;48.942;8.404;2023-06-22T09:06:25;28.80;62.19
69387;SHT31;56575;48.942;8.404;2023-06-22T09:08:50;28.84;60.32
69387;SHT31;56575;48.942;8.404;2023-06-22T09:11:16;29.10;61.23
69387;SHT31;56575;48.942;8.404;2023-06-22T09:13:41;29.38;61.52
69387;SHT31;56575;48.942;8.404;2023-06-22T09:16:07;29.68;59.99
69387;SHT31;56575;48.942;8.404;2023-06-22T09:18:34;29.87;60.14
69387;SHT31;56575;48.942;8.404;2023-06-22T09:20:59;30.16;57.38
69387;SHT31;56575;48.942;8.404;2023-06-22T09:23:25;30.47;58.21
69387;SHT31;56575;48.942;8.404;2023-06-22T09:25:50;30.78;57.65
69387;SHT31;56575;48.942;8.404;2023-06-22T09:28:16;30.95;53.92
69387;SHT31;56575;48.942;8.404;2023-06-22T09:30:43;30.48;53.78
69387;SHT31;56575;48.942;8.404;2023-06-22T09:33:09;30.92;53.78
69387;SHT31;56575;48.942;8.404;2023-06-22T09:35:35;30.85;53.51
69387;SHT31;56575;48.942;8.404;2023-06-22T09:38:00;30.74;54.87
69387;SHT31;56575;48.942;8.404;2023-06-22T09:40:25;30.75;55.35
69387;SHT31;56575;48.942;8.404;2023-06-22T09:42:51;31.02;56.40
69387;SHT31;56575;48.942;8.404;2023-06-22T09:45:16;31.07;55.97
69387;SHT31;56575;48.942;8.404;2023-06-22T09:47:42;31.04;56.18
69387;SHT31;56575;48.942;8.404;2023-06-22T09:50:07;30.75;56.22
69387;SHT31;56575;48.942;8.404;2023-06-22T09:52:33;30.57;57.99
69387;SHT31;56575;48.942;8.404;2023-06-22T09:54:59;30.54;57.46
69387;SHT31;56575;48.942;8.404;2023-06-22T09:57:24;30.48;56.94
69387;SHT31;56575;48.942;8.404;2023-06-22T09:59:50;30.48;57.73
69387;SHT31;56575;48.942;8.404;2023-06-22T10:02:15;30.38;56.80
69387;SHT31;56575;48.942;8.404;2023-06-22T10:04:40;30.37;58.00
69387;SHT31;56575;48.942;8.404;2023-06-22T10:07:06;30.31;58.59
69387;SHT31;56575;48.942;8.404;2023-06-22T10:09:31;30.16;59.32
69387;SHT31;56575;48.942;8.404;2023-06-22T10:11:57;30.06;58.31
69387;SHT31;56575;48.942;8.404;2023-06-22T10:14:22;30.18;59.10
69387;SHT31;56575;48.942;8.404;2023-06-22T10:16:49;30.37;57.07
69387;SHT31;56575;48.942;8.404;2023-06-22T10:19:15;30.54;58.06
69387;SHT31;56575;48.942;8.404;2023-06-22T10:21:40;30.61;57.00
69387;SHT31;56575;48.942;8.404;2023-06-22T10:24:05;30.96;56.42
69387;SHT31;56575;48.942;8.404;2023-06-22T10:26:34;31.10;56.69
69387;SHT31;56575;48.942;8.404;2023-06-22T10:29:02;30.96;55.50
69387;SHT31;56575;48.942;8.404;2023-06-22T10:31:27;30.89;56.06
69387;SHT31;56575;48.942;8.404;2023-06-22T10:33:53;30.93;56.16
69387;SHT31;56575;48.942;8.404;2023-06-22T10:36:19;30.97;57.24
69387;SHT31;56575;48.942;8.404;2023-06-22T10:38:44;30.99;54.25
69387;SHT31;56575;48.942;8.404;2023-06-22T10:41:10;30.97;56.44
69387;SHT31;56575;48.942;8.404;2023-06-22T10:43:36;30.99;55.96
69387;SHT31;56575;48.942;8.404;2023-06-22T10:46:01;30.97;56.62
69387;SHT31;56575;48.942;8.404;2023-06-22T10:48:27;31.00;56.27
69387;SHT31;56575;48.942;8.404;2023-06-22T10:50:52;31.12;57.17
69387;SHT31;56575;48.942;8.404;2023-06-22T10:53:18;31.26;56.72
69387;SHT31;56575;48.942;8.404;2023-06-22T10:55:44;31.59;56.76
69387;SHT31;56575;48.942;8.404;2023-06-22T10:58:09;31.99;53.53
69387;SHT31;56575;48.942;8.404;2023-06-22T11:00:35;32.29;54.38
69387;SHT31;56575;48.942;8.404;2023-06-22T11:03:00;32.41;53.65
69387;SHT31;56575;48.942;8.404;2023-06-22T11:05:26;32.03;52.58
69387;SHT31;56575;48.942;8.404;2023-06-22T11:07:51;31.97;53.04
69387;SHT31;56575;48.942;8.404;2023-06-22T11:10:16;31.95;54.38
69387;SHT31;56575;48.942;8.404;2023-06-22T11:12:42;32.12;53.42
69387;SHT31;56575;48.942;8.404;2023-06-22T11:15:08;32.23;55.84
69387;SHT31;56575;48.942;8.404;2023-06-22T11:17:34;32.06;52.74
69387;SHT31;56575;48.942;8.404;2023-06-22T11:19:59;32.08;54.26
69387;SHT31;56575;48.942;8.404;2023-06-22T11:22:25;32.26;55.59
69387;SHT31;56575;48.942;8.404;2023-06-22T11:24:51;32.27;53.89
69387;SHT31;56575;48.942;8.404;2023-06-22T11:27:16;32.19;52.93
69387;SHT31;56575;48.942;8.404;2023-06-22T11:29:42;32.14;54.24
69387;SHT31;56575;48.942;8.404;2023-06-22T11:32:07;32.01;55.26
69387;SHT31;56575;48.942;8.404;2023-06-22T11:34:33;31.64;55.28
69387;SHT31;56575;48.942;8.404;2023-06-22T11:36:58;31.51;55.29
69387;SHT31;56575;48.942;8.404;2023-06-22T11:39:23;31.40;55.01
69387;SHT31;56575;48.942;8.404;2023-06-22T11:41:49;31.27;54.80
69387;SHT31;56575;48.942;8.404;2023-06-22T11:44:14;31.16;54.36
69387;SHT31;56575;48.942;8.404;2023-06-22T11:46:40;30.90;54.90
69387;SHT31;56575;48.942;8.404;2023-06-22T11:49:05;30.79;55.26
69387;SHT31;56575;48.942;8.404;2023-06-22T11:51:30;30.82;55.92
69387;SHT31;56575;48.942;8.404;2023-06-22T11:53:57;30.87;55.67
69387;SHT31;56575;48.942;8.404;2023-06-22T11:56:22;31.02;55.10
69387;SHT31;56575;48.942;8.404;2023-06-22T11:58:48;31.68;53.21
69387;SHT31;56575;48.942;8.404;2023-06-22T12:01:13;31.79;53.22
69387;SHT31;56575;48.942;8.404;2023-06-22T12:03:40;31.84;52.52
69387;SHT31;56575;48.942;8.404;2023-06-22T12:06:06;32.08;53.03
69387;SHT31;56575;48.942;8.404;2023-06-22T12:08:31;32.10;52.40
69387;SHT31;56575;48.942;8.404;2023-06-22T12:10:57;32.17;51.75
69387;SHT31;56575;48.942;8.404;2023-06-22T12:13:22;32.79;51.75
69387;SHT31;56575;48.942;8.404;2023-06-22T12:15:47;33.22;52.34
69387;SHT31;56575;48.942;8.404;2023-06-22T12:18:13;33.27;49.81
69387;SHT31;56575;48.942;8.404;2023-06-22T12:20:41;33.05;50.33
69387;SHT31;56575;48.942;8.404;2023-06-22T12:23:07;32.86;51.06
69387;SHT31;56575;48.942;8.404;2023-06-22T12:25:32;32.63;51.11
69387;SHT31;56575;48.942;8.404;2023-06-22T12:27:58;32.40;51.40
69387;SHT31;56575;48.942;8.404;2023-06-22T12:30:23;32.21;52.33
69387;SHT31;56575;48.942;8.404;2023-06-22T12:32:48;32.02;53.08
69387;SHT31;56575;48.942;8.404;2023-06-22T12:35:14;31.82;53.18
69387;SHT31;56575;48.942;8.404;2023-06-22T12:37:41;31.59;54.17
69387;SHT31;56575;48.942;8.404;2023-06-22T12:40:07;31.40;53.96
69387;SHT31;56575;48.942;8.404;2023-06-22T12:42:33;31.37;55.58
69387;SHT31;56575;48.942;8.404;2023-06-22T12:44:58;31.38;55.38
69387;SHT31;56575;48.942;8.404;2023-06-22T12:47:24;31.45;56.38
69387;SHT31;56575;48.942;8.404;2023-06-22T12:49:49;31.48;54.87
69387;SHT31;56575;48.942;8.404;2023-06-22T12:52:15;31.45;54.57
69387;SHT31;56575;48.942;8.404;2023-06-22T12:54:40;31.40;55.31
69387;SHT31;56575;48.942;8.404;2023-06-22T12:57:06;31.30;55.97
69387;SHT31;56575;48.942;8.404;2023-06-22T12:59:31;31.30;56.02
69387;SHT31;56575;48.942;8.404;2023-06-22T13:01:57;31.29;56.33
69387;SHT31;56575;48.942;8.404;2023-06-22T13:04:22;31.33;55.76
69387;SHT31;56575;48.942;8.404;2023-06-22T13:06:48;31.33;55.65
69387;SHT31;56575;48.942;8.404;2023-06-22T13:09:14;31.40;55.97
69387;SHT31;56575;48.942;8.404;2023-06-22T13:11:40;31.48;55.66
69387;SHT31;56575;48.942;8.404;2023-06-22T13:14:06;31.71;54.82
69387;SHT31;56575;48.942;8.404;2023-06-22T13:16:31;31.99;54.80
69387;SHT31;56575;48.942;8.404;2023-06-22T13:18:57;32.17;54.39
69387;SHT31;56575;48.942;8.404;2023-06-22T13:21:22;32.36;53.88
69387;SHT31;56575;48.942;8.404;2023-06-22T13:23:48;32.24;53.30
69387;SHT31;56575;48.942;8.404;2023-06-22T13:26:13;32.26;53.83
69387;SHT31;56575;48.942;8.404;2023-06-22T13:28:38;32.24;54.08
69387;SHT31;56575;48.942;8.404;2023-06-22T13:31:04;32.06;54.74
69387;SHT31;56575;48.942;8.404;2023-06-22T13:33:29;32.27;54.78
69387;SHT31;56575;48.942;8.404;2023-06-22T13:35:55;32.34;53.76
69387;SHT31;56575;48.942;8.404;2023-06-22T13:38:20;32.39;54.36
69387;SHT31;56575;48.942;8.404;2023-06-22T13:40:45;32.23;53.65
69387;SHT31;56575;48.942;8.404;2023-06-22T13:43:13;31.88;55.03
69387;SHT31;56575;48.942;8.404;2023-06-22T13:45:38;32.02;55.30
69387;SHT31;56575;48.942;8.404;2023-06-22T13:48:04;31.65;54.93
69387;SHT31;56575;48.942;8.404;2023-06-22T13:50:29;31.50;56.04
69387;SHT31;56575;48.942;8.404;2023-06-22T13:52:55;32.12;56.44
69387;SHT31;56575;48.942;8.404;2023-06-22T13:55:21;32.34;53.71
69387;SHT31;56575;48.942;8.404;2023-06-22T13:57:46;32.29;53.84
69387;SHT31;56575;48.942;8.404;2023-06-22T14:00:12;32.03;53.93
69387;SHT31;56575;48.942;8.404;2023-06-22T14:02:38;31.58;55.43
69387;SHT31;56575;48.942;8.404;2023-06-22T14:05:05;30.99;56.00
69387;SHT31;56575;48.942;8.404;2023-06-22T14:07:31;30.71;57.18
69387;SHT31;56575;48.942;8.404;2023-06-22T14:09:56;30.61;57.15
69387;SHT31;56575;48.942;8.404;2023-06-22T14:12:23;30.52;56.93
69387;SHT31;56575;48.942;8.404;2023-06-22T14:14:48;30.24;57.45
69387;SHT31;56575;48.942;8.404;2023-06-22T14:17:14;29.99;57.89
69387;SHT31;56575;48.942;8.404;2023-06-22T14:19:39;29.90;58.07
69387;SHT31;56575;48.942;8.404;2023-06-22T14:22:05;29.93;58.15
69387;SHT31;56575;48.942;8.404;2023-06-22T14:24:30;29.96;58.12
69387;SHT31;56575;48.942;8.404;2023-06-22T14:26:56;30.03;58.05
69387;SHT31;56575;48.942;8.404;2023-06-22T14:29:22;30.09;57.54
69387;SHT31;56575;48.942;8.404;2023-06-22T14:31:48;30.06;57.58
69387;SHT31;56575;48.942;8.404;2023-06-22T14:34:14;30.28;57.75
69387;SHT31;56575;48.942;8.404;2023-06-22T14:36:40;30.31;56.69
69387;SHT31;56575;48.942;8.404;2023-06-22T14:39:05;30.54;55.85
69387;SHT31;56575;48.942;8.404;2023-06-22T14:41:30;30.86;56.41
69387;SHT31;56575;48.942;8.404;2023-06-22T14:43:56;31.12;55.04
69387;SHT31;56575;48.942;8.404;2023-06-22T14:46:22;31.13;53.68
69387;SHT31;56575;48.942;8.404;2023-06-22T14:48:47;31.07;53.90
69387;SHT31;56575;48.942;8.404;2023-06-22T14:51:13;31.13;54.31
69387;SHT31;56575;48.942;8.404;2023-06-22T14:53:39;31.06;53.58
69387;SHT31;56575;48.942;8.404;2023-06-22T14:56:05;30.99;53.83
69387;SHT31;56575;48.942;8.404;2023-06-22T14:58:32;31.00;54.31
69387;SHT31;56575;48.942;8.404;2023-06-22T15:01:02;31.27;54.71
69387;SHT31;56575;48.942;8.404;2023-06-22T15:03:28;31.42;52.73
69387;SHT31;56575;48.942;8.404;2023-06-22T15:05:56;31.69;52.35
69387;SHT31;56575;48.942;8.404;2023-06-22T15:08:22;31.92;52.35
69387;SHT31;56575;48.942;8.404;2023-06-22T15:10:47;32.26;51.12
69387;SHT31;56575;48.942;8.404;2023-06-22T15:13:13;31.99;50.59
69387;SHT31;56575;48.942;8.404;2023-06-22T15:15:38;32.33;49.57
69387;SHT31;56575;48.942;8.404;2023-06-22T15:18:04;32.31;49.82
69387;SHT31;56575;48.942;8.404;2023-06-22T15:20:30;32.67;50.35
69387;SHT31;56575;48.942;8.404;2023-06-22T15:22:57;32.63;50.46
69387;SHT31;56575;48.942;8.404;2023-06-22T15:25:23;32.96;50.48
69387;SHT31;56575;48.942;8.404;2023-06-22T15:27:49;33.16;49.52
69387;SHT31;56575;48.942;8.404;2023-06-22T15:30:14;32.92;48.80
69387;SHT31;56575;48.942;8.404;2023-06-22T15:32:45;32.64;49.44